Time,TemperatureF,DewpointF,PressureIn,WindDirection,WindDirectionDegrees,WindSpeedMPH,WindSpeedGustMPH,Humidity,HourlyPrecipIn,Conditions,Clouds,dailyrainin,SoftwareType,DateUTC
2013-02-27 00:11:00,35.0,29.0,29.62,NW,310,12.0,19.0,79,-99.99,,,-99.99,,2013-02-27 06:11:00,
2013-02-27 00:21:00,35.0,29.0,29.62,NW,310,12.0,19.0,79,-99.99,,,-99.99,,2013-02-27 06:21:00,
2013-02-27 00:33:00,35.0,-99.9,29.63,NW,325,11.0,16.0,-999,-99.99,,,-99.99,,2013-02-27 06:33:00,
2013-02-27 00:42:00,35.0,29.0,29.63,NW,305,9.0,15.0,80,-99.99,,,-99.99,,2013-02-27 06:42:00,
2013-02-27 00:51:00,35.0,29.0,29.63,NW,305,9.0,15.0,80,-99.99,,,-99.99,,2013-02-27 06:51:00,
2013-02-27 01:01:00,34.0,29.0,29.63,NW,305,8.0,19.0,81,-99.99,,,-99.99,,2013-02-27 07:01:00,
2013-02-27 01:12:00,34.0,29.0,29.64,NW,305,13.0,20.0,81,-99.99,,,-99.99,,2013-02-27 07:12:00,
2013-02-27 01:21:00,34.0,29.0,29.64,NW,305,13.0,20.0,81,-99.99,,,-99.99,,2013-02-27 07:21:00,
2013-02-27 01:32:00,34.0,29.0,29.64,NW,325,11.0,18.0,80,-99.99,,,-99.99,,2013-02-27 07:32:00,
2013-02-27 01:42:00,34.0,29.0,29.64,NW,325,13.0,19.0,80,-99.99,,,-99.99,,2013-02-27 07:42:00,
2013-02-27 01:51:00,34.0,29.0,29.64,NW,325,13.0,19.0,80,-99.99,,,-99.99,,2013-02-27 07:51:00,
2013-02-27 02:01:00,34.0,-99.9,29.64,NW,320,8.0,17.0,-999,-99.99,,,-99.99,,2013-02-27 08:01:00,
2013-02-27 02:11:00,34.0,28.0,29.65,NW,310,13.0,18.0,79,-99.99,,,-99.99,,2013-02-27 08:11:00,
2013-02-27 02:21:00,34.0,28.0,29.65,NW,310,13.0,18.0,79,-99.99,,,-99.99,,2013-02-27 08:21:00,
2013-02-27 02:32:00,34.0,28.0,29.64,NW,315,8.0,19.0,79,-99.99,,,-99.99,,2013-02-27 08:32:00,
2013-02-27 02:42:00,34.0,28.0,29.64,NW,320,15.0,23.0,78,-99.99,,,-99.99,,2013-02-27 08:42:00,
2013-02-27 02:52:00,34.0,28.0,29.64,NW,320,15.0,23.0,78,-99.99,,,-99.99,,2013-02-27 08:52:00,
2013-02-27 03:02:00,34.0,27.0,29.64,NNW,335,10.0,21.0,76,-99.99,,,-99.99,,2013-02-27 09:02:00,
2013-02-27 03:12:00,34.0,-99.9,29.64,NNW,335,7.0,19.0,-999,-99.99,,,-99.99,,2013-02-27 09:12:00,
2013-02-27 03:22:00,34.0,-99.9,29.64,NNW,335,7.0,19.0,-999,-99.99,,,-99.99,,2013-02-27 09:22:00,
2013-02-27 03:32:00,34.0,28.0,29.64,WNW,295,7.0,15.0,77,-99.99,,,-99.99,,2013-02-27 09:32:00,
2013-02-27 03:41:00,34.0,28.0,29.65,WNW,290,8.0,17.0,76,-99.99,,,-99.99,,2013-02-27 09:41:00,
2013-02-27 03:51:00,34.0,28.0,29.65,WNW,290,8.0,17.0,76,-99.99,,,-99.99,,2013-02-27 09:51:00,
2013-02-27 04:01:00,34.0,28.0,29.65,NW,320,9.0,15.0,76,-99.99,,,-99.99,,2013-02-27 10:01:00,
2013-02-27 04:12:00,34.0,28.0,29.66,WNW,290,11.0,20.0,76,-99.99,,,-99.99,,2013-02-27 10:12:00,
2013-02-27 04:22:00,34.0,28.0,29.66,WNW,290,11.0,20.0,76,-99.99,,,-99.99,,2013-02-27 10:22:00,
2013-02-27 04:32:00,34.0,26.0,29.66,NW,310,6.0,15.0,74,-99.99,,,-99.99,,2013-02-27 10:32:00,
2013-02-27 04:42:00,34.0,-99.9,29.65,NW,315,7.0,14.0,-999,-99.99,,,-99.99,,2013-02-27 10:42:00,
2013-02-27 04:53:00,34.0,-99.9,29.65,NW,315,7.0,14.0,-999,-99.99,,,-99.99,,2013-02-27 10:53:00,
2013-02-27 05:02:00,34.0,30.0,29.66,NW,315,7.0,11.0,85,-99.99,,,-99.99,,2013-02-27 11:02:00,
2013-02-27 05:12:00,34.0,29.0,29.66,NW,315,10.0,15.0,84,-99.99,,,-99.99,,2013-02-27 11:12:00,
2013-02-27 05:20:00,34.0,-99.9,29.68,West,280,8.0,15.0,-999,-99.99,,,-99.99,,2013-02-27 11:20:00,
2013-02-27 05:22:00,34.0,29.0,29.66,NW,315,10.0,15.0,84,-99.99,,,-99.99,,2013-02-27 11:22:00,
2013-02-27 05:32:00,34.0,28.0,29.67,WNW,300,10.0,15.0,81,-99.99,,,-99.99,,2013-02-27 11:32:00,
2013-02-27 05:42:00,34.0,29.0,29.68,WNW,295,8.0,14.0,81,-99.99,,,-99.99,,2013-02-27 11:42:00,
2013-02-27 05:52:00,34.0,-99.9,29.68,West,280,8.0,15.0,-999,-99.99,,,-99.99,,2013-02-27 11:52:00,
2013-02-27 06:02:00,34.0,-99.9,29.68,West,280,8.0,15.0,-999,-99.99,,,-99.99,,2013-02-27 12:02:00,
2013-02-27 06:13:00,34.0,-99.9,29.68,West,280,8.0,15.0,-999,-99.99,,,-99.99,,2013-02-27 12:13:00,
2013-02-27 06:20:00,34.0,26.0,29.69,WNW,290,7.0,14.0,74,-99.99,,,-99.99,,2013-02-27 12:20:00,
2013-02-27 06:33:00,34.0,29.0,29.69,NW,310,7.0,13.0,82,-99.99,,,-99.99,,2013-02-27 12:33:00,
2013-02-27 06:42:00,34.0,29.0,29.69,WNW,295,6.0,17.0,82,-99.99,,,-99.99,,2013-02-27 12:42:00,
2013-02-27 06:52:00,34.0,29.0,29.69,WNW,295,6.0,17.0,82,-99.99,,,-99.99,,2013-02-27 12:52:00,
2013-02-27 07:02:00,34.0,26.0,29.69,WNW,290,7.0,14.0,74,-99.99,,,-99.99,,2013-02-27 13:02:00,
2013-02-27 07:11:00,34.0,26.0,29.69,WNW,290,7.0,14.0,74,-99.99,,,-99.99,,2013-02-27 13:11:00,
2013-02-27 07:32:00,34.0,-99.9,29.70,WNW,285,10.0,14.0,-999,-99.99,,,-99.99,,2013-02-27 13:32:00,
2013-02-27 07:42:00,34.0,29.0,29.71,WNW,285,6.0,14.0,81,-99.99,,,-99.99,,2013-02-27 13:42:00,
2013-02-27 07:52:00,34.0,29.0,29.71,WNW,285,6.0,14.0,81,-99.99,,,-99.99,,2013-02-27 13:52:00,
2013-02-27 08:02:00,34.0,28.0,29.71,West,275,10.0,16.0,78,-99.99,,,-99.99,,2013-02-27 14:02:00,
2013-02-27 08:12:00,35.0,-99.9,29.71,West,275,9.0,17.0,-999,-99.99,,,-99.99,,2013-02-27 14:12:00,
2013-02-27 08:22:00,35.0,-99.9,29.71,West,275,9.0,17.0,-999,-99.99,,,-99.99,,2013-02-27 14:22:00,
2013-02-27 08:32:00,35.0,29.0,29.72,West,265,9.0,17.0,79,-99.99,,,-99.99,,2013-02-27 14:32:00,
2013-02-27 08:42:00,35.0,28.0,29.72,WNW,295,11.0,17.0,76,-99.99,,,-99.99,,2013-02-27 14:42:00,
2013-02-27 08:52:00,35.0,28.0,29.72,WNW,295,11.0,17.0,76,-99.99,,,-99.99,,2013-02-27 14:52:00,
2013-02-27 09:02:00,35.0,30.0,29.72,WNW,290,9.0,17.0,81,-99.99,,,-99.99,,2013-02-27 15:02:00,
2013-02-27 09:12:00,35.0,29.0,29.72,NW,305,13.0,19.0,79,-99.99,,,-99.99,,2013-02-27 15:12:00,
2013-02-27 09:22:00,35.0,29.0,29.72,NW,305,13.0,19.0,79,-99.99,,,-99.99,,2013-02-27 15:22:00,
2013-02-27 09:32:00,35.0,29.0,29.72,WNW,285,11.0,15.0,78,-99.99,,,-99.99,,2013-02-27 15:32:00,
2013-02-27 09:42:00,35.0,29.0,29.73,WNW,285,12.0,20.0,79,-99.99,,,-99.99,,2013-02-27 15:42:00,
2013-02-27 09:52:00,35.0,29.0,29.73,WNW,285,12.0,20.0,79,-99.99,,,-99.99,,2013-02-27 15:52:00,
2013-02-27 10:02:00,35.0,29.0,29.73,WNW,295,11.0,20.0,78,-99.99,,,-99.99,,2013-02-27 16:02:00,
2013-02-27 10:12:00,35.0,-99.9,29.73,NW,325,11.0,19.0,-999,-99.99,,,-99.99,,2013-02-27 16:12:00,
2013-02-27 10:20:00,36.0,30.0,29.72,WNW,290,8.0,15.0,79,-99.99,,,-99.99,,2013-02-27 16:20:00,
2013-02-27 10:22:00,35.0,-99.9,29.73,NW,325,11.0,19.0,-999,-99.99,,,-99.99,,2013-02-27 16:22:00,
2013-02-27 10:32:00,36.0,30.0,29.73,WNW,300,6.0,17.0,78,-99.99,,,-99.99,,2013-02-27 16:32:00,
2013-02-27 10:42:00,36.0,29.0,29.73,WNW,300,9.0,15.0,77,-99.99,,,-99.99,,2013-02-27 16:42:00,
2013-02-27 10:52:00,36.0,29.0,29.73,WNW,300,9.0,15.0,77,-99.99,,,-99.99,,2013-02-27 16:52:00,
2013-02-27 11:02:00,36.0,30.0,29.72,WNW,290,8.0,15.0,79,-99.99,,,-99.99,,2013-02-27 17:02:00,
2013-02-27 11:11:00,36.0,30.0,29.72,WNW,290,8.0,15.0,79,-99.99,,,-99.99,,2013-02-27 17:11:00,
2013-02-27 11:32:00,36.0,32.0,29.73,WNW,290,13.0,18.0,86,-99.99,,,-99.99,,2013-02-27 17:32:00,
2013-02-27 11:42:00,36.0,30.0,29.73,NW,305,9.0,17.0,77,-99.99,,,-99.99,,2013-02-27 17:42:00,
2013-02-27 11:52:00,36.0,30.0,29.73,NW,305,9.0,17.0,77,-99.99,,,-99.99,,2013-02-27 17:52:00,
2013-02-27 12:02:00,36.0,29.0,29.74,WNW,295,12.0,23.0,77,-99.99,,,-99.99,,2013-02-27 18:02:00,
2013-02-27 12:11:00,36.0,29.0,29.74,WNW,295,13.0,22.0,77,-99.99,,,-99.99,,2013-02-27 18:11:00,
2013-02-27 12:22:00,36.0,29.0,29.74,WNW,295,13.0,22.0,77,-99.99,,,-99.99,,2013-02-27 18:22:00,
2013-02-27 12:32:00,35.0,27.0,29.75,WNW,300,7.0,15.0,74,-99.99,,,-99.99,,2013-02-27 18:32:00,
2013-02-27 12:42:00,35.0,29.0,29.74,WNW,295,12.0,20.0,79,-99.99,,,-99.99,,2013-02-27 18:42:00,
2013-02-27 12:51:00,35.0,29.0,29.74,WNW,295,12.0,20.0,79,-99.99,,,-99.99,,2013-02-27 18:51:00,
2013-02-27 13:01:00,34.0,28.0,29.74,NW,305,14.0,20.0,78,-99.99,,,-99.99,,2013-02-27 19:01:00,
2013-02-27 13:12:00,34.0,29.0,29.74,WNW,290,12.0,26.0,81,-99.99,,,-99.99,,2013-02-27 19:12:00,
2013-02-27 13:21:00,34.0,29.0,29.74,WNW,290,12.0,26.0,81,-99.99,,,-99.99,,2013-02-27 19:21:00,
2013-02-27 13:32:00,34.0,28.0,29.74,NW,305,10.0,15.0,77,-99.99,,,-99.99,,2013-02-27 19:32:00,
2013-02-27 13:42:00,34.0,29.0,29.74,West,280,10.0,19.0,82,-99.99,,,-99.99,,2013-02-27 19:42:00,
2013-02-27 13:52:00,34.0,29.0,29.74,West,280,10.0,19.0,82,-99.99,,,-99.99,,2013-02-27 19:52:00,
2013-02-27 14:02:00,34.0,-99.9,29.74,WNW,300,11.0,15.0,-999,-99.99,,,-99.99,,2013-02-27 20:02:00,
2013-02-27 14:12:00,34.0,-99.9,29.74,NW,305,7.0,15.0,-999,-99.99,,,-99.99,,2013-02-27 20:12:00,
2013-02-27 14:22:00,34.0,-99.9,29.74,NW,305,7.0,15.0,-999,-99.99,,,-99.99,,2013-02-27 20:22:00,
2013-02-27 14:32:00,34.0,13.0,29.75,WNW,300,10.0,18.0,42,-99.99,,,-99.99,,2013-02-27 20:32:00,
2013-02-27 14:42:00,34.0,29.0,29.74,NW,305,8.0,15.0,83,-99.99,,,-99.99,,2013-02-27 20:42:00,
2013-02-27 14:52:00,34.0,29.0,29.74,NW,305,8.0,15.0,83,-99.99,,,-99.99,,2013-02-27 20:52:00,
2013-02-27 15:02:00,34.0,30.0,29.75,WNW,285,11.0,15.0,83,-99.99,,,-99.99,,2013-02-27 21:02:00,
2013-02-27 15:12:00,34.0,-99.9,29.75,WNW,300,9.0,15.0,-999,-99.99,,,-99.99,,2013-02-27 21:12:00,
2013-02-27 15:22:00,34.0,-99.9,29.75,WNW,300,9.0,15.0,-999,-99.99,,,-99.99,,2013-02-27 21:22:00,
2013-02-27 15:32:00,35.0,30.0,29.75,NW,320,9.0,15.0,83,-99.99,,,-99.99,,2013-02-27 21:32:00,
2013-02-27 15:42:00,34.0,-99.9,29.76,WNW,295,13.0,19.0,0,-99.99,,,-99.99,,2013-02-27 21:42:00,
2013-02-27 15:52:00,34.0,-99.9,29.76,WNW,295,13.0,19.0,0,-99.99,,,-99.99,,2013-02-27 21:52:00,
2013-02-27 16:02:00,34.0,-99.9,29.77,WNW,295,10.0,16.0,-999,-99.99,,,-99.99,,2013-02-27 22:02:00,
2013-02-27 16:12:00,34.0,-99.9,29.77,NW,315,10.0,15.0,-999,-99.99,,,-99.99,,2013-02-27 22:12:00,
2013-02-27 16:20:00,35.0,29.0,29.78,West,270,8.0,16.0,79,-99.99,,,-99.99,,2013-02-27 22:20:00,
2013-02-27 16:22:00,34.0,-99.9,29.77,NW,315,10.0,15.0,-999,-99.99,,,-99.99,,2013-02-27 22:22:00,
2013-02-27 16:32:00,35.0,-99.9,29.77,NW,305,10.0,15.0,-999,-99.99,,,-99.99,,2013-02-27 22:32:00,
2013-02-27 16:42:00,35.0,31.0,29.78,NW,320,9.0,16.0,85,-99.99,,,-99.99,,2013-02-27 22:42:00,
2013-02-27 16:51:00,35.0,31.0,29.78,NW,320,9.0,16.0,85,-99.99,,,-99.99,,2013-02-27 22:51:00,
2013-02-27 17:01:00,35.0,29.0,29.78,West,270,8.0,16.0,79,-99.99,,,-99.99,,2013-02-27 23:01:00,
2013-02-27 17:11:00,35.0,29.0,29.78,West,270,8.0,16.0,79,-99.99,,,-99.99,,2013-02-27 23:11:00,
2013-02-27 17:32:00,34.0,28.0,29.79,WNW,300,9.0,16.0,78,-99.99,,,-99.99,,2013-02-27 23:32:00,
2013-02-27 17:42:00,34.0,28.0,29.80,NW,320,7.0,17.0,79,-99.99,,,-99.99,,2013-02-27 23:42:00,
2013-02-27 17:52:00,34.0,28.0,29.80,NW,320,7.0,17.0,79,-99.99,,,-99.99,,2013-02-27 23:52:00,
2013-02-27 18:02:00,34.0,28.0,29.80,WNW,300,10.0,17.0,78,-99.99,,,-99.99,,2013-02-28 00:02:00,
2013-02-27 18:12:00,34.0,28.0,29.81,WNW,300,9.0,19.0,79,-99.99,,,-99.99,,2013-02-28 00:12:00,
2013-02-27 18:21:00,34.0,28.0,29.81,WNW,300,9.0,19.0,79,-99.99,,,-99.99,,2013-02-28 00:21:00,
2013-02-27 18:32:00,34.0,28.0,29.81,NW,305,8.0,19.0,78,-99.99,,,-99.99,,2013-02-28 00:32:00,
2013-02-27 18:42:00,34.0,28.0,29.82,NNW,330,5.0,20.0,78,-99.99,,,-99.99,,2013-02-28 00:42:00,
2013-02-27 18:52:00,34.0,28.0,29.82,NNW,330,5.0,20.0,78,-99.99,,,-99.99,,2013-02-28 00:52:00,
2013-02-27 19:01:00,33.0,27.0,29.82,NW,315,9.0,19.0,78,-99.99,,,-99.99,,2013-02-28 01:01:00,
2013-02-27 19:11:00,33.0,26.0,29.82,NW,320,11.0,27.0,77,-99.99,,,-99.99,,2013-02-28 01:11:00,
2013-02-27 19:21:00,33.0,26.0,29.82,NW,320,11.0,27.0,77,-99.99,,,-99.99,,2013-02-28 01:21:00,
2013-02-27 19:32:00,33.0,-99.9,29.83,NW,305,9.0,22.0,-999,-99.99,,,-99.99,,2013-02-28 01:32:00,
2013-02-27 19:42:00,33.0,22.0,29.84,NNW,330,8.0,19.0,63,-99.99,,,-99.99,,2013-02-28 01:42:00,
2013-02-27 19:50:00,33.0,19.0,29.84,NW,310,11.0,21.0,55,-99.99,,,-99.99,,2013-02-28 01:50:00,
2013-02-27 19:52:00,33.0,22.0,29.84,NNW,330,8.0,19.0,63,-99.99,,,-99.99,,2013-02-28 01:52:00,
2013-02-27 20:01:00,33.0,25.0,29.83,NW,315,11.0,18.0,73,-99.99,,,-99.99,,2013-02-28 02:01:00,
2013-02-27 20:11:00,33.0,-99.9,29.84,NW,315,10.0,15.0,-999,-99.99,,,-99.99,,2013-02-28 02:11:00,
2013-02-27 20:22:00,33.0,-99.9,29.84,NW,315,10.0,15.0,-999,-99.99,,,-99.99,,2013-02-28 02:22:00,
2013-02-27 20:32:00,33.0,19.0,29.84,NW,310,11.0,21.0,55,-99.99,,,-99.99,,2013-02-28 02:32:00,
2013-02-27 20:41:00,33.0,19.0,29.84,NW,310,11.0,21.0,55,-99.99,,,-99.99,,2013-02-28 02:41:00,
2013-02-27 21:01:00,33.0,25.0,29.84,NW,320,9.0,23.0,73,-99.99,,,-99.99,,2013-02-28 03:01:00,
2013-02-27 21:11:00,33.0,25.0,29.85,NW,310,6.0,13.0,74,-99.99,,,-99.99,,2013-02-28 03:11:00,
2013-02-27 21:21:00,33.0,25.0,29.85,NW,310,6.0,13.0,74,-99.99,,,-99.99,,2013-02-28 03:21:00,
2013-02-27 21:32:00,33.0,26.0,29.85,NW,305,10.0,18.0,75,-99.99,,,-99.99,,2013-02-28 03:32:00,
2013-02-27 21:42:00,33.0,-99.9,29.85,NW,320,10.0,19.0,-999,-99.99,,,-99.99,,2013-02-28 03:42:00,
2013-02-27 21:52:00,33.0,-99.9,29.85,NW,320,10.0,19.0,-999,-99.99,,,-99.99,,2013-02-28 03:52:00,
2013-02-27 22:02:00,33.0,25.0,29.85,NW,310,9.0,14.0,74,-99.99,,,-99.99,,2013-02-28 04:02:00,
2013-02-27 22:11:00,33.0,25.0,29.85,NNW,335,9.0,14.0,73,-99.99,,,-99.99,,2013-02-28 04:11:00,
2013-02-27 22:21:00,33.0,25.0,29.85,NNW,335,9.0,14.0,73,-99.99,,,-99.99,,2013-02-28 04:21:00,
2013-02-27 22:32:00,33.0,25.0,29.85,NW,320,8.0,16.0,73,-99.99,,,-99.99,,2013-02-28 04:32:00,
2013-02-27 22:42:00,33.0,26.0,29.85,NW,320,9.0,19.0,77,-99.99,,,-99.99,,2013-02-28 04:42:00,
2013-02-27 22:52:00,33.0,26.0,29.85,NW,320,9.0,19.0,77,-99.99,,,-99.99,,2013-02-28 04:52:00,
2013-02-27 23:01:00,33.0,26.0,29.85,NW,320,9.0,17.0,75,-99.99,,,-99.99,,2013-02-28 05:01:00,
2013-02-27 23:11:00,33.0,25.0,29.85,NW,305,7.0,15.0,72,-99.99,,,-99.99,,2013-02-28 05:11:00,
2013-02-27 23:22:00,33.0,25.0,29.85,NW,305,7.0,15.0,72,-99.99,,,-99.99,,2013-02-28 05:22:00,
2013-02-27 23:32:00,33.0,25.0,29.85,WNW,300,10.0,17.0,72,-99.99,,,-99.99,,2013-02-28 05:32:00,
2013-02-27 23:42:00,33.0,27.0,29.85,NW,320,11.0,15.0,79,-99.99,,,-99.99,,2013-02-28 05:42:00,
2013-02-27 23:52:00,33.0,27.0,29.85,NW,320,11.0,15.0,79,-99.99,,,-99.99,,2013-02-28 05:52:00,